createdAt,value
2018-05-03T00:01:36.867Z,38.40
2018-05-03T00:04:44.815Z,38.50
2018-05-03T00:07:58.551Z,38.50
2018-05-03T00:11:05.582Z,38.30
2018-05-03T00:14:13.890Z,38.40
2018-05-03T00:17:23.170Z,38.30
2018-05-03T00:20:31.332Z,38.40
2018-05-03T00:23:40.476Z,38.20
2018-05-03T00:26:48.687Z,38.30
2018-05-03T00:29:57.371Z,38.30
2018-05-03T00:33:06.407Z,38.40
2018-05-03T00:36:15.236Z,38.40
2018-05-03T00:39:23.864Z,38.40
2018-05-03T00:42:33.162Z,38.30
2018-05-03T00:45:42.311Z,38.30
2018-05-03T00:48:50.667Z,38.30
2018-05-03T00:52:01.219Z,38.30
2018-05-03T00:55:17.567Z,38.40
2018-05-03T00:58:25.340Z,38.30
2018-05-03T01:01:34.157Z,38.30
2018-05-03T01:04:43.568Z,38.30
2018-05-03T01:07:53.465Z,38.30
2018-05-03T01:11:03.330Z,38.30
2018-05-03T01:14:12.419Z,38.40
2018-05-03T01:17:21.396Z,38.30
2018-05-03T01:20:29.100Z,38.20
2018-05-03T01:23:38.636Z,38.20
2018-05-03T01:26:46.405Z,38.20
2018-05-03T01:29:55.780Z,38.40
2018-05-03T01:33:05.536Z,38.30
2018-05-03T01:36:25.297Z,38.30
2018-05-03T01:39:34.652Z,38.30
2018-05-03T01:42:43.094Z,38.30
2018-05-03T01:45:50.576Z,38.30
2018-05-03T01:48:58.246Z,38.30
2018-05-03T01:52:10.639Z,38.30
2018-05-03T01:55:18.547Z,38.40
2018-05-03T01:58:27.176Z,38.30
2018-05-03T02:01:34.339Z,38.30
2018-05-03T02:04:43.814Z,38.30
2018-05-03T02:07:56.825Z,38.20
2018-05-03T02:11:05.310Z,38.20
2018-05-03T02:14:14.428Z,38.30
2018-05-03T02:17:25.378Z,38.30
2018-05-03T02:20:34.625Z,38.20
2018-05-03T02:23:42.718Z,38.20
2018-05-03T02:26:53.741Z,38.20
2018-05-03T02:30:03.137Z,38.30
2018-05-03T02:33:12.821Z,38.30
2018-05-03T02:36:21.869Z,38.20
2018-05-03T02:39:31.492Z,38.20
2018-05-03T02:42:40.670Z,38.20
2018-05-03T02:45:49.241Z,38.20
2018-05-03T02:48:58.748Z,38.30
2018-05-03T02:52:07.978Z,38.20
2018-05-03T02:55:17.046Z,38.20
2018-05-03T03:00:43.822Z,38.20
2018-05-03T03:06:10.905Z,38.20
2018-05-03T03:11:31.211Z,38.20
2018-05-03T03:16:49.845Z,38.20
2018-05-03T03:20:12.695Z,38.20
2018-05-03T03:25:38.572Z,38.30
2018-05-03T03:29:58.916Z,38.30
2018-05-03T03:35:20.408Z,38.20
2018-05-03T03:42:45.533Z,38.20
2018-05-03T03:45:54.698Z,38.10
2018-05-03T03:49:05.042Z,38.20
2018-05-03T03:52:14.057Z,38.10
2018-05-03T03:55:24.080Z,38.10
2018-05-03T03:58:31.744Z,38.10
2018-05-03T04:01:41.521Z,38.10
2018-05-03T04:04:50.525Z,38.60
2018-05-03T04:07:59.561Z,38.60
2018-05-03T04:11:09.261Z,38.70
2018-05-03T04:14:18.489Z,38.50
2018-05-03T04:17:27.862Z,38.50
2018-05-03T04:20:56.709Z,38.50
2018-05-03T04:26:15.194Z,38.30
2018-05-03T04:29:23.943Z,38.20
2018-05-03T04:32:32.438Z,38.10
2018-05-03T04:35:40.732Z,38.10
2018-05-03T04:38:50.206Z,38.00
2018-05-03T04:42:00.146Z,37.80
2018-05-03T04:45:07.550Z,37.80
2018-05-03T04:48:17.147Z,37.80
2018-05-03T04:51:25.206Z,37.70
2018-05-03T04:54:38.948Z,37.60
2018-05-03T04:57:48.795Z,37.60
2018-05-03T05:00:59.750Z,37.50
2018-05-03T05:04:08.394Z,37.60
2018-05-03T05:07:17.509Z,37.50
2018-05-03T05:10:26.332Z,37.40
2018-05-03T05:13:36.235Z,37.30
2018-05-03T05:16:45.140Z,37.40
2018-05-03T05:19:53.447Z,37.40
2018-05-03T05:23:02.209Z,37.40
2018-05-03T05:26:13.650Z,37.30
2018-05-03T05:29:21.886Z,37.40
2018-05-03T05:32:31.155Z,37.20
2018-05-03T05:35:41.092Z,37.10
2018-05-03T05:38:49.924Z,37.20
2018-05-03T05:41:59.282Z,37.10
2018-05-03T05:45:09.739Z,37.00
2018-05-03T05:48:19.013Z,37.10
2018-05-03T05:51:25.876Z,37.00
2018-05-03T05:54:33.440Z,37.00
2018-05-03T05:57:42.154Z,37.00
2018-05-03T06:00:52.360Z,37.00
2018-05-03T06:04:02.180Z,36.90
2018-05-03T06:07:10.680Z,36.80
2018-05-03T06:10:20.882Z,36.90
2018-05-03T06:13:29.958Z,36.80
2018-05-03T06:16:38.757Z,36.80
2018-05-03T06:19:48.538Z,36.70
2018-05-03T06:22:55.869Z,36.70
2018-05-03T06:26:04.651Z,36.90
2018-05-03T06:29:13.583Z,36.80
2018-05-03T06:32:22.613Z,36.60
2018-05-03T06:35:32.765Z,36.60
2018-05-03T06:38:41.204Z,36.70
2018-05-03T06:41:49.936Z,36.60
2018-05-03T06:44:59.269Z,36.60
2018-05-03T06:48:07.139Z,36.70
2018-05-03T06:51:15.450Z,36.80
2018-05-03T06:54:24.658Z,36.70
2018-05-03T06:57:33.525Z,36.60
2018-05-03T07:00:41.572Z,36.60
2018-05-03T07:03:49.172Z,36.10
2018-05-03T07:06:58.176Z,36.00
2018-05-03T07:10:07.434Z,36.30
2018-05-03T07:13:15.921Z,36.20
2018-05-03T07:16:29.188Z,36.20
2018-05-03T07:19:38.780Z,36.20
2018-05-03T07:22:47.745Z,36.10
2018-05-03T07:25:57.214Z,36.30
2018-05-03T07:29:06.046Z,36.40
2018-05-03T07:32:13.523Z,36.40
2018-05-03T07:35:21.946Z,36.40
2018-05-03T07:38:29.632Z,36.50
2018-05-03T07:41:38.111Z,36.80
2018-05-03T07:44:47.799Z,36.60
2018-05-03T07:47:55.410Z,36.70
2018-05-03T07:51:03.088Z,36.80
2018-05-03T07:54:14.091Z,36.80
2018-05-03T07:57:22.787Z,36.80
2018-05-03T08:00:31.440Z,36.80
2018-05-03T08:03:40.377Z,36.90
2018-05-03T08:06:48.392Z,36.80
2018-05-03T08:09:58.543Z,36.80
2018-05-03T08:13:06.406Z,37.10
2018-05-03T08:16:15.004Z,36.80
2018-05-03T08:19:23.048Z,36.90
2018-05-03T08:22:31.696Z,36.90
2018-05-03T08:25:40.769Z,37.20
2018-05-03T08:28:49.142Z,37.00
2018-05-03T08:31:58.587Z,37.00
2018-05-03T08:35:07.355Z,37.10
2018-05-03T08:38:16.482Z,37.10
2018-05-03T08:41:24.369Z,37.10
2018-05-03T08:44:34.780Z,37.00
2018-05-03T08:47:44.750Z,37.10
2018-05-03T08:50:54.021Z,37.00
2018-05-03T08:54:02.595Z,37.10
2018-05-03T08:57:13.440Z,37.10
2018-05-03T09:00:22.324Z,37.10
2018-05-03T09:03:32.949Z,37.10
2018-05-03T09:06:45.948Z,37.00
2018-05-03T09:09:54.219Z,37.00
2018-05-03T09:13:02.996Z,37.00
2018-05-03T09:16:11.031Z,37.00
2018-05-03T09:19:21.221Z,36.80
2018-05-03T09:22:29.230Z,36.90
2018-05-03T09:25:39.152Z,36.80
2018-05-03T09:28:48.442Z,36.90
2018-05-03T09:31:58.776Z,36.80
2018-05-03T09:35:07.510Z,36.90
2018-05-03T09:38:15.501Z,36.80
2018-05-03T09:41:23.728Z,36.70
2018-05-03T09:44:32.532Z,36.60
2018-05-03T09:47:41.185Z,36.60
2018-05-03T09:50:49.348Z,36.70
2018-05-03T09:53:59.800Z,36.70
2018-05-03T09:57:07.897Z,36.50
2018-05-03T10:00:16.275Z,36.40
2018-05-03T10:03:24.782Z,36.40
2018-05-03T10:06:33.439Z,36.40
2018-05-03T10:09:42.708Z,36.40
2018-05-03T10:12:52.708Z,36.30
2018-05-03T10:16:01.074Z,36.30
2018-05-03T10:19:08.486Z,36.20
2018-05-03T10:22:15.961Z,36.20
2018-05-03T10:25:25.029Z,36.10
2018-05-03T10:28:35.493Z,36.10
2018-05-03T10:31:44.039Z,36.20
2018-05-03T10:34:53.420Z,36.20
2018-05-03T10:38:03.201Z,36.30
2018-05-03T10:41:12.291Z,36.20
2018-05-03T10:44:22.188Z,36.20
2018-05-03T10:47:33.288Z,36.20
2018-05-03T10:50:42.075Z,36.20
2018-05-03T10:53:50.380Z,36.10
2018-05-03T10:56:58.562Z,36.00
2018-05-03T11:00:06.485Z,36.00
2018-05-03T11:03:14.277Z,36.10
2018-05-03T11:06:20.960Z,36.20
2018-05-03T11:09:30.518Z,36.20
2018-05-03T11:12:39.596Z,36.10
2018-05-03T11:15:50.232Z,36.10
2018-05-03T11:18:58.500Z,36.10
2018-05-03T11:22:07.311Z,36.10
2018-05-03T11:25:16.436Z,35.90
2018-05-03T11:28:25.765Z,35.90
2018-05-03T11:31:35.503Z,36.00
2018-05-03T11:34:44.119Z,36.10
2018-05-03T11:37:53.167Z,36.30
2018-05-03T11:41:01.749Z,36.50
2018-05-03T11:44:10.658Z,36.60
2018-05-03T11:47:19.762Z,36.40
2018-05-03T11:50:28.725Z,36.40
2018-05-03T11:53:37.516Z,36.40
2018-05-03T11:56:45.296Z,36.20
2018-05-03T11:59:53.718Z,36.10
2018-05-03T12:03:03.147Z,36.00
2018-05-03T12:06:11.949Z,36.00
2018-05-03T12:09:20.794Z,35.80
2018-05-03T12:12:30.667Z,35.80
2018-05-03T12:15:39.812Z,35.70
2018-05-03T12:18:48.105Z,35.50
2018-05-03T12:21:58.368Z,35.60
2018-05-03T12:25:08.415Z,35.60
2018-05-03T12:28:16.453Z,35.20
2018-05-03T12:31:25.210Z,35.20
2018-05-03T12:34:33.831Z,35.10
2018-05-03T12:37:42.007Z,35.10
2018-05-03T12:40:51.808Z,34.90
2018-05-03T12:44:00.442Z,35.00
2018-05-03T12:47:09.215Z,35.00
2018-05-03T12:50:18.644Z,35.00
2018-05-03T12:53:27.515Z,35.00
2018-05-03T12:56:37.093Z,35.00
2018-05-03T12:59:46.433Z,35.00
2018-05-03T13:02:55.736Z,35.00
2018-05-03T13:06:04.299Z,35.10
2018-05-03T13:09:11.804Z,35.00
2018-05-03T13:12:21.262Z,35.00
2018-05-03T13:15:29.107Z,35.00
2018-05-03T13:18:37.939Z,35.00
2018-05-03T13:21:47.066Z,35.10
2018-05-03T13:24:55.197Z,35.00
2018-05-03T13:28:04.848Z,35.00
2018-05-03T13:31:13.449Z,35.00
2018-05-03T13:34:22.380Z,35.00
2018-05-03T13:37:29.934Z,34.90
2018-05-03T13:40:38.004Z,34.90
2018-05-03T13:43:47.145Z,34.90
2018-05-03T13:46:55.072Z,34.80
2018-05-03T13:50:03.696Z,34.70
2018-05-03T13:53:13.524Z,34.70
2018-05-03T13:56:23.201Z,34.80
2018-05-03T13:59:31.563Z,34.70
2018-05-03T14:02:39.351Z,34.70
2018-05-03T14:05:48.370Z,34.80
2018-05-03T14:08:55.714Z,34.70
2018-05-03T14:12:04.805Z,34.70
2018-05-03T14:15:46.710Z,34.80
2018-05-03T14:18:55.877Z,34.80
2018-05-03T14:22:04.014Z,34.80
2018-05-03T14:25:12.716Z,34.90
2018-05-03T14:28:21.196Z,34.90
2018-05-03T14:31:32.008Z,34.90
2018-05-03T14:34:40.749Z,34.90
2018-05-03T14:37:49.127Z,34.90
2018-05-03T14:40:57.939Z,34.90
2018-05-03T14:44:06.911Z,34.90
2018-05-03T14:47:16.346Z,35.00
2018-05-03T14:50:25.063Z,35.00
2018-05-03T14:53:32.747Z,35.00
2018-05-03T14:56:39.961Z,35.00
2018-05-03T14:59:48.869Z,34.90
2018-05-03T15:02:57.131Z,34.80
2018-05-03T15:06:06.637Z,34.90
2018-05-03T15:09:17.143Z,35.30
2018-05-03T15:12:25.510Z,35.20
2018-05-03T15:15:35.304Z,35.00
2018-05-03T15:18:44.378Z,35.00
2018-05-03T15:21:51.603Z,34.90
2018-05-03T15:25:00.483Z,34.90
2018-05-03T15:28:11.322Z,34.60
2018-05-03T15:31:22.222Z,34.60
2018-05-03T15:34:30.560Z,34.40
2018-05-03T15:37:39.038Z,34.20
2018-05-03T15:40:47.330Z,34.30
2018-05-03T15:43:56.404Z,34.10
2018-05-03T15:47:04.856Z,34.10
2018-05-03T15:50:12.115Z,34.10
2018-05-03T15:53:19.810Z,34.10
2018-05-03T15:56:28.961Z,34.10
2018-05-03T15:59:38.315Z,34.00
2018-05-03T16:02:47.211Z,33.90
2018-05-03T16:05:56.037Z,33.80
2018-05-03T16:09:06.146Z,33.80
2018-05-03T16:12:16.721Z,33.70
2018-05-03T16:15:26.080Z,33.50
2018-05-03T16:18:35.729Z,33.40
2018-05-03T16:21:43.252Z,33.30
2018-05-03T16:24:52.732Z,33.30
2018-05-03T16:28:01.320Z,33.30
2018-05-03T16:31:10.403Z,33.30
2018-05-03T16:34:21.837Z,33.20
2018-05-03T16:37:30.785Z,33.10
2018-05-03T16:40:39.496Z,33.10
2018-05-03T16:43:48.340Z,33.00
2018-05-03T16:46:56.334Z,33.00
2018-05-03T16:50:04.083Z,33.10
2018-05-03T16:53:12.485Z,33.30
2018-05-03T16:56:18.760Z,33.30
2018-05-03T16:59:24.755Z,33.30
2018-05-03T17:02:33.712Z,33.90
2018-05-03T17:05:40.874Z,34.50
2018-05-03T17:08:50.412Z,34.80
2018-05-03T17:11:58.927Z,34.80
2018-05-03T17:15:07.370Z,34.80
2018-05-03T17:18:14.948Z,34.80
2018-05-03T17:21:22.752Z,34.90
2018-05-03T17:24:32.076Z,34.80
2018-05-03T17:27:42.080Z,34.80
2018-05-03T17:30:51.157Z,34.80
2018-05-03T17:34:00.080Z,34.80
2018-05-03T17:37:08.983Z,34.70
2018-05-03T17:40:16.292Z,34.70
2018-05-03T17:43:24.805Z,34.60
2018-05-03T17:46:32.719Z,34.70
2018-05-03T17:49:40.222Z,34.60
2018-05-03T17:52:49.328Z,34.60
2018-05-03T17:55:57.034Z,34.60
2018-05-03T17:59:05.542Z,34.60
2018-05-03T18:02:14.225Z,34.60
2018-05-03T18:05:22.528Z,34.60
2018-05-03T18:08:30.760Z,34.60
2018-05-03T18:11:39.754Z,34.60
2018-05-03T18:14:48.929Z,34.60
2018-05-03T18:17:57.031Z,34.60
2018-05-03T18:21:04.712Z,34.50
2018-05-03T18:24:12.892Z,34.50
2018-05-03T18:27:22.059Z,34.50
2018-05-03T18:30:29.150Z,34.60
2018-05-03T18:33:39.270Z,34.50
2018-05-03T18:36:48.270Z,34.50
2018-05-03T18:39:56.578Z,34.50
2018-05-03T18:43:09.106Z,34.50
2018-05-03T18:46:17.964Z,34.50
2018-05-03T18:49:27.726Z,34.40
2018-05-03T18:52:36.975Z,34.40
2018-05-03T18:55:46.804Z,34.50
2018-05-03T18:58:54.168Z,34.50
2018-05-03T19:02:03.958Z,34.50
2018-05-03T19:05:13.872Z,34.50
2018-05-03T19:08:24.076Z,34.50
2018-05-03T19:11:33.334Z,34.40
2018-05-03T19:14:41.663Z,34.40
2018-05-03T19:17:49.216Z,34.40
2018-05-03T19:20:57.758Z,34.30
2018-05-03T19:24:07.373Z,34.30
2018-05-03T19:27:16.071Z,34.30
2018-05-03T19:30:25.778Z,34.30
2018-05-03T19:33:35.130Z,34.30
2018-05-03T19:36:44.430Z,34.30
2018-05-03T19:39:53.428Z,34.40
2018-05-03T19:43:02.421Z,34.40
2018-05-03T19:46:11.225Z,34.30
2018-05-03T19:49:20.170Z,34.30
2018-05-03T19:52:28.976Z,34.30
2018-05-03T19:55:38.847Z,34.30
2018-05-03T19:58:47.840Z,34.30
2018-05-03T20:01:57.195Z,34.30
2018-05-03T20:05:04.253Z,34.30
2018-05-03T20:08:12.538Z,34.40
2018-05-03T20:11:20.220Z,34.30
2018-05-03T20:14:28.235Z,34.30
2018-05-03T20:17:37.338Z,34.30
2018-05-03T20:20:45.822Z,34.30
2018-05-03T20:23:53.692Z,34.30
2018-05-03T20:27:02.141Z,34.30
2018-05-03T20:30:09.358Z,34.30
2018-05-03T20:33:17.561Z,34.40
2018-05-03T20:36:25.818Z,34.40
2018-05-03T20:39:33.867Z,34.40
2018-05-03T20:42:43.675Z,34.40
2018-05-03T20:45:51.949Z,34.40
2018-05-03T20:49:01.450Z,34.40
2018-05-03T20:52:10.394Z,34.40
2018-05-03T20:55:24.178Z,34.40
2018-05-03T20:58:31.970Z,34.40
2018-05-03T21:01:41.691Z,34.40
2018-05-03T21:04:50.760Z,33.80
2018-05-03T21:07:59.478Z,33.70
2018-05-03T21:11:07.696Z,33.90
2018-05-03T21:14:16.684Z,34.00
2018-05-03T21:17:25.782Z,34.20
2018-05-03T21:20:35.216Z,34.40
2018-05-03T21:23:43.436Z,34.50
2018-05-03T21:26:52.619Z,34.60
2018-05-03T21:30:01.581Z,34.70
2018-05-03T21:33:10.472Z,34.80
2018-05-03T21:36:19.280Z,35.00
2018-05-03T21:39:27.294Z,35.00
2018-05-03T21:42:37.190Z,35.10
2018-05-03T21:45:46.120Z,35.10
2018-05-03T21:48:55.812Z,35.30
2018-05-03T21:52:05.011Z,35.40
2018-05-03T21:55:12.476Z,35.50
2018-05-03T21:58:20.071Z,35.60
2018-05-03T22:01:29.811Z,35.50
2018-05-03T22:04:38.743Z,35.60
2018-05-03T22:07:48.684Z,35.70
2018-05-03T22:10:58.587Z,35.80
2018-05-03T22:14:05.764Z,35.70
2018-05-03T22:17:14.190Z,35.80
2018-05-03T22:20:23.009Z,35.90
2018-05-03T22:23:31.739Z,35.90
2018-05-03T22:26:40.405Z,36.00
2018-05-03T22:29:49.376Z,36.00
2018-05-03T22:33:00.654Z,36.10
2018-05-03T22:36:09.899Z,36.00
2018-05-03T22:39:18.959Z,36.20
2018-05-03T22:42:29.072Z,36.20
2018-05-03T22:45:41.721Z,36.20
2018-05-03T22:48:49.272Z,36.20
2018-05-03T22:51:58.187Z,36.40
2018-05-03T22:55:06.551Z,36.30
2018-05-03T22:58:13.668Z,36.30
2018-05-03T23:01:20.935Z,36.40
2018-05-03T23:04:28.214Z,36.50
2018-05-03T23:07:37.193Z,36.40
2018-05-03T23:10:46.918Z,36.50
2018-05-03T23:13:55.250Z,36.60
2018-05-03T23:17:04.450Z,36.60
2018-05-03T23:20:13.435Z,36.50
2018-05-03T23:23:22.793Z,36.60
2018-05-03T23:26:31.149Z,36.50
2018-05-03T23:29:41.246Z,36.60
2018-05-03T23:32:50.570Z,36.60
2018-05-03T23:35:59.618Z,36.60
2018-05-03T23:39:09.661Z,36.70
2018-05-03T23:42:18.564Z,36.80
2018-05-03T23:45:27.614Z,36.80
2018-05-03T23:48:36.255Z,36.80
2018-05-03T23:51:46.889Z,36.90
2018-05-03T23:54:56.239Z,36.80
2018-05-03T23:58:05.127Z,36.90
